Time;durP1;ratioP1;P1;durP2;ratioP2;P2;SDS_P1;SDS_P2;PMS_P1;PMS_P2;Temp;Humidity;BMP_temperature;BMP_pressure;BME280_temperature;BME280_humidity;BME280_pressure;Samples;Min_cycle;Max_cycle;Signal;HPM_P1;HPM_P2
2023/09/30 00:00:13;;;;;;;2.60;2.20;;;;;;;13.64;100.00;98204.19;1225604;75;2913986;-77
2023/09/30 00:02:45;;;;;;;3.15;2.85;;;;;;;13.68;100.00;98203.97;1223495;75;3044252;-74
2023/09/30 00:05:19;;;;;;;3.05;2.05;;;;;;;13.67;100.00;98205.97;1225711;75;2911709;-74
2023/09/30 00:07:52;;;;;;;2.20;1.60;;;;;;;13.69;100.00;98200.75;1220991;75;3111833;-77
2023/09/30 00:10:24;;;;;;;2.70;2.10;;;;;;;13.67;100.00;98196.97;1224924;75;2926146;-78
2023/09/30 00:12:58;;;;;;;2.50;1.90;;;;;;;13.54;100.00;98195.31;1224862;75;2959768;-73
2023/09/30 00:15:33;;;;;;;2.80;2.15;;;;;;;13.61;100.00;98189.41;1222958;75;3041209;-76
2023/09/30 00:18:07;;;;;;;2.15;1.95;;;;;;;13.54;100.00;98192.56;1221799;75;2985860;-76
2023/09/30 00:20:40;;;;;;;2.60;2.15;;;;;;;13.50;100.00;98183.00;1221951;75;3017782;-73
2023/09/30 00:23:13;;;;;;;5.00;2.70;;;;;;;13.37;100.00;98183.34;1209924;75;3881723;-76
2023/09/30 00:25:45;;;;;;;3.35;2.95;;;;;;;13.53;100.00;98179.28;1225756;75;2928260;-77
2023/09/30 00:28:18;;;;;;;3.15;2.55;;;;;;;13.55;100.00;98174.81;1222881;75;3010190;-74
2023/09/30 00:30:54;;;;;;;2.60;2.30;;;;;;;13.46;100.00;98174.22;1223518;75;2983218;-74
2023/09/30 00:33:26;;;;;;;3.30;3.00;;;;;;;13.33;100.00;98172.56;1225632;75;2922816;-74
2023/09/30 00:35:59;;;;;;;3.30;2.65;;;;;;;13.42;100.00;98168.91;1226789;75;2924551;-78
2023/09/30 00:38:32;;;;;;;2.40;2.15;;;;;;;13.50;100.00;98174.75;1225605;75;2925967;-79
2023/09/30 00:41:04;;;;;;;3.70;2.35;;;;;;;13.55;100.00;98174.81;1221505;75;3141467;-76
2023/09/30 00:43:37;;;;;;;2.55;2.00;;;;;;;13.51;100.00;98181.75;1222397;75;3097634;-78
2023/09/30 00:46:27;;;;;;;3.25;2.00;;;;;;;13.53;100.00;98182.78;1212968;75;3808967;-76
2023/09/30 00:49:01;;;;;;;3.40;2.30;;;;;;;13.37;100.00;98172.34;1225755;75;2923424;-78
2023/09/30 00:51:34;;;;;;;2.25;2.05;;;;;;;13.46;100.00;98177.72;1211070;75;3971772;-77
2023/09/30 00:54:08;;;;;;;2.50;1.85;;;;;;;13.46;100.00;98177.72;1226174;75;2912283;-74
2023/09/30 00:56:48;;;;;;;1.80;1.70;;;;;;;13.43;100.00;98186.94;1225023;75;2918360;-75
2023/09/30 00:59:21;;;;;;;2.65;2.15;;;;;;;13.38;100.00;98185.63;1219453;75;3080617;-74
2023/09/30 01:02:01;;;;;;;2.85;2.40;;;;;;;13.17;100.00;98187.56;1223560;75;2970899;-75
2023/09/30 01:04:34;;;;;;;2.35;2.05;;;;;;;13.13;100.00;98176.03;1223612;75;2912789;-72
2023/09/30 01:07:07;;;;;;;2.60;2.40;;;;;;;13.20;100.00;98178.38;1223306;75;3054438;-74
2023/09/30 01:09:39;;;;;;;2.80;2.60;;;;;;;13.10;100.00;98168.00;1219422;75;3174051;-79
2023/09/30 01:12:12;;;;;;;3.60;2.50;;;;;;;13.07;100.00;98182.69;1222817;75;3005281;-76
2023/09/30 01:14:45;;;;;;;3.75;2.40;;;;;;;13.16;100.00;98172.34;1225190;75;2920720;-75
2023/09/30 01:17:21;;;;;;;2.55;2.25;;;;;;;13.24;100.00;98169.91;1222779;75;3033886;-76
2023/09/30 01:19:54;;;;;;;2.35;2.10;;;;;;;13.27;100.00;98166.22;1224068;75;2918586;-77
2023/09/30 01:22:31;;;;;;;2.65;2.05;;;;;;;13.22;100.00;98169.63;1217063;75;3107506;-75
2023/09/30 01:25:03;;;;;;;2.20;2.00;;;;;;;13.22;100.00;98170.38;1226202;75;2913720;-76
2023/09/30 01:27:36;;;;;;;2.95;2.45;;;;;;;13.11;100.00;98166.78;1225398;75;2915788;-74
2023/09/30 01:30:13;;;;;;;2.40;2.15;;;;;;;12.96;100.00;98164.06;1225477;75;2915516;-76
2023/09/30 01:32:46;;;;;;;3.00;2.70;;;;;;;13.06;100.00;98167.44;1221541;75;3103523;-76
2023/09/30 01:35:19;;;;;;;3.10;2.50;;;;;;;13.02;100.00;98173.16;1221729;75;3065666;-76
2023/09/30 01:37:54;;;;;;;3.80;2.80;;;;;;;12.96;100.00;98166.81;1210842;75;4009358;-78
2023/09/30 01:40:27;;;;;;;3.45;3.10;;;;;;;12.92;100.00;98164.28;1225343;75;2920874;-77
2023/09/30 01:43:00;;;;;;;3.40;3.00;;;;;;;12.97;100.00;98162.84;1223927;83;2955083;-77
2023/09/30 01:45:33;;;;;;;3.70;2.90;;;;;;;12.94;100.00;98169.28;1209086;75;3961319;-74
2023/09/30 01:48:06;;;;;;;4.05;3.15;;;;;;;13.08;100.00;98178.69;1225404;75;2913017;-75
2023/09/30 01:50:39;;;;;;;3.10;2.70;;;;;;;12.93;100.00;98170.53;1223465;75;2993273;-78
2023/09/30 01:53:14;;;;;;;3.05;2.75;;;;;;;13.01;100.00;98168.88;1225627;75;2926725;-79
2023/09/30 01:55:47;;;;;;;2.90;2.60;;;;;;;13.10;100.00;98170.75;1226176;75;2913568;-75
2023/09/30 01:58:20;;;;;;;3.90;3.50;;;;;;;12.69;100.00;98165.94;1212888;75;3904124;-73
2023/09/30 02:00:53;;;;;;;3.15;2.75;;;;;;;12.92;100.00;98158.78;1225724;67;2918420;-75
2023/09/30 02:03:25;;;;;;;3.35;2.90;;;;;;;12.92;100.00;98158.03;1224778;75;2914002;-78
2023/09/30 02:05:58;;;;;;;3.15;2.85;;;;;;;12.69;100.00;98154.94;1218671;75;3102387;-78
2023/09/30 02:08:35;;;;;;;4.30;3.40;;;;;;;12.87;100.00;98153.19;1222946;75;2928517;-74
2023/09/30 02:11:08;;;;;;;3.40;2.80;;;;;;;12.98;100.00;98158.84;1224631;75;2942276;-78
2023/09/30 02:13:42;;;;;;;3.25;2.55;;;;;;;12.83;100.00;98150.66;1225791;75;2916018;-74
2023/09/30 02:16:18;;;;;;;2.90;2.45;;;;;;;12.87;100.00;98156.72;1224807;75;2909121;-76
2023/09/30 02:18:51;;;;;;;2.60;2.30;;;;;;;12.90;100.00;98155.75;1221310;75;2976148;-75
2023/09/30 02:21:24;;;;;;;2.90;2.60;;;;;;;13.04;100.00;98156.94;1223749;75;2971655;-79
2023/09/30 02:23:59;;;;;;;3.40;2.40;;;;;;;12.93;100.00;98168.53;1210168;75;3985782;-79
2023/09/30 02:26:32;;;;;;;2.65;2.35;;;;;;;12.98;100.00;98181.56;1219730;75;3030478;-77
2023/09/30 02:29:07;;;;;;;4.10;3.50;;;;;;;12.60;100.00;98181.78;1220489;75;3079594;-72
2023/09/30 02:31:41;;;;;;;4.30;3.90;;;;;;;12.88;100.00;98182.19;1221474;75;3066520;-75
2023/09/30 02:34:13;;;;;;;3.15;2.85;;;;;;;13.06;100.00;98181.94;1225064;75;2919269;-75
2023/09/30 02:36:47;;;;;;;5.70;3.20;;;;;;;12.91;100.00;98175.72;1224237;75;2914615;-74
2023/09/30 02:39:23;;;;;;;4.10;3.35;;;;;;;12.81;100.00;98175.09;1224995;75;2915141;-75
2023/09/30 02:41:55;;;;;;;3.60;2.85;;;;;;;12.98;100.00;98176.06;1224953;75;2914644;-74
2023/09/30 02:44:28;;;;;;;5.65;3.70;;;;;;;12.53;100.00;98178.19;1221880;75;3095372;-74
2023/09/30 02:47:01;;;;;;;5.10;4.15;;;;;;;12.52;100.00;98178.66;1225269;75;2943985;-73
2023/09/30 02:49:36;;;;;;;7.00;4.95;;;;;;;12.67;100.00;98165.66;1209105;75;4004724;-75
2023/09/30 02:52:09;;;;;;;5.40;4.65;;;;;;;12.70;100.00;98172.19;1221628;75;3053518;-76
2023/09/30 02:54:45;;;;;;;4.70;4.05;;;;;;;13.02;100.00;98181.38;1211349;75;3976759;-79
2023/09/30 02:57:17;;;;;;;3.80;3.05;;;;;;;13.06;100.00;98172.94;1217463;75;3077133;-72
2023/09/30 02:59:51;;;;;;;2.90;2.60;;;;;;;13.07;100.00;98183.44;1223827;75;2925579;-76
2023/09/30 03:02:24;;;;;;;3.80;3.30;;;;;;;12.82;100.00;98190.38;1220548;75;2977734;-73
2023/09/30 03:04:58;;;;;;;6.30;4.50;;;;;;;13.01;100.00;98185.34;1224814;75;2920350;-75
2023/09/30 03:07:33;;;;;;;3.60;3.30;;;;;;;13.14;100.00;98185.03;1223123;75;3033552;-75
2023/09/30 03:10:09;;;;;;;4.35;3.90;;;;;;;13.04;100.00;98189.16;1198000;75;5045221;-76
2023/09/30 03:12:42;;;;;;;4.30;3.90;;;;;;;12.92;100.00;98174.50;1221385;75;2980600;-76
2023/09/30 03:15:16;;;;;;;5.80;4.10;;;;;;;13.05;100.00;98172.19;1208778;75;3923047;-75
2023/09/30 03:17:49;;;;;;;5.90;3.80;;;;;;;13.17;100.00;98165.59;1224417;75;2921996;-75
2023/09/30 03:20:24;;;;;;;5.10;3.60;;;;;;;13.21;100.00;98168.13;1219062;75;3028492;-77
2023/09/30 03:22:57;;;;;;;3.40;3.10;;;;;;;13.34;100.00;98160.31;1225024;75;2923511;-74
2023/09/30 03:25:33;;;;;;;3.10;2.80;;;;;;;13.22;100.00;98164.91;1219968;75;3080152;-78
2023/09/30 03:28:07;;;;;;;4.45;4.00;;;;;;;13.05;100.00;98161.19;1211055;75;3968174;-75
2023/09/30 03:30:39;;;;;;;4.45;3.85;;;;;;;13.25;100.00;98165.19;1224884;75;2925817;-78
2023/09/30 03:33:12;;;;;;;3.40;3.10;;;;;;;13.32;100.00;98164.78;1218869;75;3084589;-76
2023/09/30 03:35:45;;;;;;;3.10;2.80;;;;;;;13.34;100.00;98176.81;1220933;75;2952964;-73
2023/09/30 03:38:19;;;;;;;4.25;3.15;;;;;;;13.07;100.00;98163.47;1224292;75;2919394;-78
2023/09/30 03:40:55;;;;;;;4.00;3.40;;;;;;;13.23;100.00;98168.41;1223632;75;2925625;-76
2023/09/30 03:43:28;;;;;;;3.70;3.15;;;;;;;13.31;100.00;98169.53;1222592;75;3020193;-77
2023/09/30 03:46:01;;;;;;;3.30;3.00;;;;;;;13.31;100.00;98164.03;1196101;75;4076441;-76
2023/09/30 03:48:38;;;;;;;3.20;2.90;;;;;;;13.38;100.00;98173.88;1218553;75;3099466;-78
2023/09/30 03:51:15;;;;;;;2.55;2.35;;;;;;;13.44;100.00;98169.19;1223947;75;2975754;-78
2023/09/30 03:53:49;;;;;;;4.15;3.50;;;;;;;13.21;100.00;98168.88;1223465;75;2926932;-75
2023/09/30 03:56:25;;;;;;;3.30;3.00;;;;;;;13.38;100.00;98166.38;1219200;75;3103477;-76
2023/09/30 03:58:58;;;;;;;5.60;3.80;;;;;;;13.03;100.00;98169.16;1220144;67;3099453;-73
2023/09/30 04:01:31;;;;;;;4.75;4.25;;;;;;;13.12;100.00;98169.03;1210955;75;3941231;-76
2023/09/30 04:04:04;;;;;;;3.85;3.35;;;;;;;13.38;100.00;98177.38;1204848;75;4220430;-74
2023/09/30 04:06:38;;;;;;;5.80;4.30;;;;;;;13.22;100.00;98181.38;1207762;75;3921966;-74
2023/09/30 04:09:12;;;;;;;4.65;3.90;;;;;;;13.12;100.00;98166.28;1223998;75;2927657;-76
2023/09/30 04:11:47;;;;;;;7.55;4.55;;;;;;;13.01;100.00;98168.88;1223247;75;2942878;-75
2023/09/30 04:14:21;;;;;;;4.10;3.70;;;;;;;13.35;100.00;98174.84;1223408;75;2981361;-73
2023/09/30 04:16:54;;;;;;;4.10;3.70;;;;;;;13.19;100.00;98176.13;1219689;75;3004022;-72
2023/09/30 04:19:26;;;;;;;3.60;3.30;;;;;;;13.22;100.00;98169.63;1223605;75;2915705;-79
2023/09/30 04:21:59;;;;;;;4.65;3.90;;;;;;;13.36;100.00;98184.59;1221260;75;3105923;-75
2023/09/30 04:24:32;;;;;;;3.10;2.80;;;;;;;13.46;100.00;98180.47;1224677;75;2912281;-74
2023/09/30 04:27:07;;;;;;;4.95;3.75;;;;;;;13.25;100.00;98179.66;1223553;75;2926982;-74
2023/09/30 04:29:41;;;;;;;3.60;3.30;;;;;;;13.47;100.00;98194.97;1220984;75;3107109;-74
2023/09/30 04:32:14;;;;;;;3.70;3.00;;;;;;;13.34;100.00;98193.31;1222641;75;2921086;-74
2023/09/30 04:34:47;;;;;;;3.70;3.05;;;;;;;13.53;100.00;98188.28;1222121;75;2970590;-73
2023/09/30 04:37:22;;;;;;;4.95;4.20;;;;;;;13.16;100.00;98190.81;1225391;75;2921655;-74
2023/09/30 04:39:55;;;;;;;4.10;3.70;;;;;;;13.52;100.00;98197.78;1219133;75;3122441;-73
2023/09/30 04:42:31;;;;;;;3.15;2.85;;;;;;;13.71;100.00;98211.25;1225395;75;2919654;-73
2023/09/30 04:45:04;;;;;;;4.50;3.80;;;;;;;13.45;100.00;98205.72;1221205;67;3026161;-77
2023/09/30 04:47:38;;;;;;;3.60;3.10;;;;;;;13.69;100.00;98213.75;1224814;75;2924238;-74
2023/09/30 04:50:16;;;;;;;9.25;6.90;;;;;;;13.22;100.00;98211.63;1223929;75;2921673;-72
2023/09/30 04:52:49;;;;;;;8.35;7.20;;;;;;;13.34;100.00;98229.06;1226123;75;2923271;-74
2023/09/30 04:55:21;;;;;;;6.45;5.65;;;;;;;13.47;100.00;98225.22;1225320;75;2924056;-76
2023/09/30 04:57:57;;;;;;;7.65;6.45;;;;;;;13.52;100.00;98219.06;1224386;75;2916202;-74
2023/09/30 05:00:30;;;;;;;6.70;6.00;;;;;;;13.42;100.00;98218.41;1221623;75;3042155;-74
2023/09/30 05:03:03;;;;;;;7.60;6.50;;;;;;;13.34;100.00;98220.06;1220416;75;3108617;-74
2023/09/30 05:05:35;;;;;;;8.65;7.50;;;;;;;13.53;100.00;98228.81;1220710;75;3026937;-77
2023/09/30 05:08:10;;;;;;;7.05;6.35;;;;;;;13.56;100.00;98225.09;1225035;75;2926384;-71
2023/09/30 05:10:43;;;;;;;6.75;5.75;;;;;;;13.54;100.00;98235.81;1224140;75;2925633;-73
2023/09/30 05:13:18;;;;;;;6.80;6.10;;;;;;;13.56;100.00;98225.84;1222868;75;2943909;-72
2023/09/30 05:15:51;;;;;;;5.85;5.25;;;;;;;13.70;100.00;98234.50;1224564;75;2927908;-77
2023/09/30 05:18:23;;;;;;;5.30;4.80;;;;;;;13.63;100.00;98230.91;1220440;75;3105196;-74
2023/09/30 05:20:57;;;;;;;5.45;4.85;;;;;;;13.67;100.00;98232.72;1222559;75;2999706;-72
2023/09/30 05:23:29;;;;;;;6.80;4.60;;;;;;;13.87;100.00;98238.19;1224159;75;2934902;-72
2023/09/30 05:26:02;;;;;;;5.55;3.70;;;;;;;14.04;100.00;98244.63;1224369;75;2920014;-76
2023/09/30 05:28:39;;;;;;;7.30;4.40;;;;;;;14.03;100.00;98245.13;1221996;75;3001452;-74
2023/09/30 05:31:12;;;;;;;4.50;4.05;;;;;;;14.06;100.00;98250.41;1221761;75;3036180;-77
2023/09/30 05:33:44;;;;;;;4.05;3.35;;;;;;;14.16;100.00;98253.00;1211736;75;3859549;-74
2023/09/30 05:36:17;;;;;;;5.90;4.15;;;;;;;13.99;100.00;98245.34;1224453;75;2920500;-71
2023/09/30 05:38:50;;;;;;;6.45;4.15;;;;;;;13.98;100.00;98254.84;1220383;75;3119229;-74
2023/09/30 05:41:22;;;;;;;4.30;3.90;;;;;;;14.18;100.00;98258.78;1221752;75;2980948;-74
2023/09/30 05:43:58;;;;;;;6.95;4.95;;;;;;;13.85;100.00;98252.47;1224302;75;2916403;-74
2023/09/30 05:46:31;;;;;;;4.75;4.25;;;;;;;14.17;100.00;98255.28;1220561;75;3005168;-74
2023/09/30 05:49:09;;;;;;;4.75;3.60;;;;;;;14.33;100.00;98256.69;1224227;75;2930754;-76
2023/09/30 05:51:42;;;;;;;;;;;;;;;14.03;100.00;98253.38;1222270;75;3001653;-75
2023/09/30 05:54:14;;;;;;;6.30;5.65;;;;;;;14.04;100.00;98265.91;1224176;75;2935543;-76
2023/09/30 05:56:49;;;;;;;5.55;4.95;;;;;;;14.20;100.00;98268.09;1224952;75;2930739;-73
2023/09/30 05:59:24;;;;;;;5.60;4.80;;;;;;;14.26;100.00;98281.91;1222066;75;2993212;-74
2023/09/30 06:01:57;;;;;;;5.80;5.20;;;;;;;14.26;100.00;98279.91;1224539;75;2929943;-73
2023/09/30 06:04:30;;;;;;;7.20;6.10;;;;;;;14.19;100.00;98279.56;1221547;75;2978607;-77
2023/09/30 06:07:02;;;;;;;7.10;6.40;;;;;;;14.25;100.00;98292.16;1223693;75;2920167;-76
2023/09/30 06:09:35;;;;;;;6.15;4.55;;;;;;;14.38;100.00;98283.53;1222693;75;2937070;-76
2023/09/30 06:12:11;;;;;;;7.35;5.75;;;;;;;14.41;100.00;98303.84;1224090;75;2922489;-78
2023/09/30 06:14:47;;;;;;;5.55;4.95;;;;;;;14.58;100.00;98299.28;1221602;75;3052618;-74
2023/09/30 06:17:22;;;;;;;5.80;4.80;;;;;;;14.70;100.00;98289.88;1219421;75;3013594;-75
2023/09/30 06:19:55;;;;;;;5.05;4.55;;;;;;;14.69;100.00;98293.84;1219479;75;3039659;-74
2023/09/30 06:22:30;;;;;;;5.15;4.65;;;;;;;14.72;100.00;98294.91;1222055;75;2932171;-73
2023/09/30 06:25:03;;;;;;;4.25;3.85;;;;;;;14.93;100.00;98290.03;1224137;75;2926293;-74
2023/09/30 06:27:36;;;;;;;8.30;6.60;;;;;;;14.54;100.00;98300.75;1221472;75;2948334;-76
2023/09/30 06:30:15;;;;;;;15.25;12.75;;;;;;;14.80;100.00;98300.72;1224909;75;2932854;-72
2023/09/30 06:32:48;;;;;;;;;;;;;;;14.81;100.00;98304.97;1223497;75;2976047;-72
2023/09/30 06:35:20;;;;;;;11.90;9.10;;;;;;;15.11;100.00;98305.47;1224159;75;2932364;-73
2023/09/30 06:37:53;;;;;;;10.15;9.05;;;;;;;15.31;100.00;98313.63;1223403;75;2925356;-73
2023/09/30 06:40:26;;;;;;;10.35;9.10;;;;;;;15.36;100.00;98320.41;1223217;75;2923034;-73
2023/09/30 06:43:00;;;;;;;9.10;7.75;;;;;;;15.33;100.00;98315.88;1223968;75;2924718;-73
2023/09/30 06:45:41;;;;;;;10.85;8.00;;;;;;;15.06;100.00;98317.22;1217476;75;3096096;-73
2023/09/30 06:48:15;;;;;;;8.95;6.75;;;;;;;15.26;100.00;98325.38;1223697;75;2922362;-75
2023/09/30 06:50:52;;;;;;;7.95;6.75;;;;;;;15.20;100.00;98326.56;1224414;75;2936648;-77
2023/09/30 06:53:25;;;;;;;7.75;6.80;;;;;;;15.29;100.00;98326.38;1222124;75;2927763;-74
2023/09/30 06:55:58;;;;;;;9.00;7.40;;;;;;;15.20;100.00;98330.09;1224766;75;2923594;-73
2023/09/30 06:58:31;;;;;;;8.00;6.80;;;;;;;15.33;100.00;98335.94;1224410;75;2920934;-73
2023/09/30 07:01:06;;;;;;;7.30;6.10;;;;;;;15.58;100.00;98349.41;1222205;75;2994669;-76
2023/09/30 07:03:39;;;;;;;7.95;6.75;;;;;;;15.38;100.00;98337.25;1224322;75;2924951;-74
2023/09/30 07:06:12;;;;;;;7.45;6.70;;;;;;;15.50;100.00;98346.34;1223381;75;2923410;-77
2023/09/30 07:08:44;;;;;;;6.40;5.70;;;;;;;15.59;100.00;98345.41;1224418;75;2924316;-74
2023/09/30 07:11:17;;;;;;;5.75;5.00;;;;;;;15.65;100.00;98344.16;1223781;75;2920158;-74
2023/09/30 07:13:50;;;;;;;6.40;4.95;;;;;;;15.93;100.00;98343.59;1225698;75;2874030;-72
2023/09/30 07:16:25;;;;;;;5.40;4.85;;;;;;;15.88;100.00;98338.81;1222698;75;2921705;-74
2023/09/30 07:18:58;;;;;;;8.70;6.60;;;;;;;15.54;100.00;98349.63;1222382;75;2920364;-74
2023/09/30 07:21:32;;;;;;;8.15;5.60;;;;;;;15.98;100.00;98351.91;1224887;75;2939911;-72
2023/09/30 07:24:06;;;;;;;6.05;4.90;;;;;;;16.06;100.00;98349.41;1224403;75;2919170;-75
2023/09/30 07:26:38;;;;;;;4.40;4.00;;;;;;;16.36;100.00;98347.00;1223693;75;2927855;-73
2023/09/30 07:29:12;;;;;;;4.60;4.10;;;;;;;16.50;100.00;98345.28;1221441;75;2929960;-73
2023/09/30 07:31:47;;;;;;;3.50;3.15;;;;;;;16.70;100.00;98338.03;1222615;75;2927118;-73
2023/09/30 07:34:20;;;;;;;6.00;5.20;;;;;;;16.51;100.00;98352.31;1222287;75;2922200;-75
2023/09/30 07:36:53;;;;;;;7.55;5.70;;;;;;;16.47;100.00;98351.78;1223822;75;2922058;-73
2023/09/30 07:39:26;;;;;;;13.55;6.75;;;;;;;16.22;100.00;98352.75;1223380;75;2941932;-77
2023/09/30 07:41:59;;;;;;;9.00;6.65;;;;;;;16.36;100.00;98355.31;1224318;75;2932913;-74
2023/09/30 07:44:31;;;;;;;7.55;5.95;;;;;;;16.66;100.00;98359.63;1219373;75;3033417;-75
2023/09/30 07:47:07;;;;;;;10.40;6.40;;;;;;;16.42;100.00;98368.38;1222181;75;2946174;-77
2023/09/30 07:49:42;;;;;;;9.25;6.50;;;;;;;16.55;100.00;98371.44;1223617;75;2920999;-76
2023/09/30 07:52:15;;;;;;;8.80;6.80;;;;;;;16.29;100.00;98377.13;1222152;75;2962548;-78
2023/09/30 07:54:47;;;;;;;8.75;6.75;;;;;;;16.42;100.00;98371.13;1220922;75;3073708;-74
2023/09/30 07:57:20;;;;;;;7.80;6.20;;;;;;;16.48;100.00;98369.16;1219139;75;3076513;-74
2023/09/30 07:59:53;;;;;;;7.55;6.70;;;;;;;16.47;100.00;98370.41;1224505;75;2919857;-74
2023/09/30 08:02:33;;;;;;;9.40;6.75;;;;;;;16.35;100.00;98375.88;1223607;75;2922282;-74
2023/09/30 08:05:06;;;;;;;8.10;5.85;;;;;;;16.49;100.00;98368.63;1221589;75;3039556;-72
2023/09/30 08:07:39;;;;;;;9.80;6.00;;;;;;;16.60;100.00;98373.44;1224179;75;2938532;-75
2023/09/30 08:10:16;;;;;;;7.00;5.95;;;;;;;16.53;100.00;98374.69;1221478;75;2964051;-72
2023/09/30 08:12:49;;;;;;;9.25;6.75;;;;;;;16.29;100.00;98369.59;1221515;75;3070124;-74
2023/09/30 08:15:22;;;;;;;10.05;7.35;;;;;;;16.24;100.00;98375.13;1222973;75;2925245;-77
2023/09/30 08:17:57;;;;;;;7.70;6.70;;;;;;;16.36;100.00;98382.94;1222819;75;2960662;-78
2023/09/30 08:20:30;;;;;;;8.55;7.15;;;;;;;16.16;100.00;98375.59;1224012;75;2937292;-76
2023/09/30 08:23:04;;;;;;;7.40;6.25;;;;;;;16.55;100.00;98379.72;1224274;75;2923817;-74
2023/09/30 08:25:36;;;;;;;13.20;7.35;;;;;;;16.26;100.00;98378.09;1224643;75;2921990;-74
2023/09/30 08:28:09;;;;;;;8.20;7.40;;;;;;;16.17;100.00;98379.84;1222909;75;2947281;-72
2023/09/30 08:30:42;;;;;;;8.00;7.00;;;;;;;16.36;100.00;98373.91;1220166;75;3011471;-76
2023/09/30 08:33:17;;;;;;;10.35;7.20;;;;;;;16.45;100.00;98389.47;1221247;75;3014971;-78
2023/09/30 08:35:50;;;;;;;8.95;6.25;;;;;;;16.76;100.00;98388.56;1223720;75;2919610;-74
2023/09/30 08:38:24;;;;;;;9.65;6.65;;;;;;;16.60;100.00;98390.78;1224522;75;2928857;-73
2023/09/30 08:40:58;;;;;;;9.05;7.50;;;;;;;16.60;100.00;98390.03;1223663;75;2925167;-78
2023/09/30 08:43:32;;;;;;;9.60;7.15;;;;;;;16.71;100.00;98394.81;1222912;75;2920679;-74
2023/09/30 08:46:06;;;;;;;8.70;6.65;;;;;;;16.73;100.00;98404.13;1224376;75;2928187;-76
2023/09/30 08:48:43;;;;;;;9.70;5.85;;;;;;;16.95;100.00;98399.91;1218835;75;3088582;-76
2023/09/30 08:51:15;;;;;;;7.90;5.70;;;;;;;17.08;100.00;98389.13;1224836;75;2925542;-75
2023/09/30 08:53:49;;;;;;;9.80;6.90;;;;;;;16.73;100.00;98395.09;1224982;75;2921140;-75
2023/09/30 08:56:27;;;;;;;7.85;6.60;;;;;;;16.79;100.00;98387.59;1224681;75;2921258;-74
2023/09/30 08:59:04;;;;;;;8.80;6.20;;;;;;;16.83;100.00;98391.59;1222236;75;2956499;-76
2023/09/30 09:01:38;;;;;;;9.25;7.20;;;;;;;16.67;100.00;98397.84;1224175;75;2921181;-76
2023/09/30 09:04:14;;;;;;;9.05;7.05;;;;;;;16.84;100.00;98397.91;1222722;75;2938836;-73
2023/09/30 09:06:47;;;;;;;8.10;6.80;;;;;;;16.86;100.00;98389.88;1224729;75;2923571;-76
2023/09/30 09:09:22;;;;;;;7.50;5.25;;;;;;;17.40;100.00;98394.41;1221767;75;3047324;-73
2023/09/30 09:11:54;;;;;;;6.70;5.50;;;;;;;17.38;100.00;98392.13;1219815;75;3099718;-73
2023/09/30 09:14:42;;;;;;;7.65;6.00;;;;;;;17.50;100.00;98386.59;1224939;75;2936072;-75
2023/09/30 09:17:16;;;;;;;9.70;6.20;;;;;;;17.43;100.00;98387.84;1224681;75;2921779;-74
2023/09/30 09:20:04;;;;;;;7.95;5.85;;;;;;;17.88;100.00;98380.25;1224853;75;2913253;-73
2023/09/30 09:22:44;;;;;;;8.35;6.05;;;;;;;17.54;100.00;98387.09;1210958;75;3895124;-73
2023/09/30 09:25:17;;;;;;;6.70;5.65;;;;;;;18.12;100.00;98390.00;1224791;75;2919267;-74
2023/09/30 09:27:50;;;;;;;6.80;5.80;;;;;;;18.09;100.00;98393.78;1223461;75;2924559;-73
2023/09/30 09:30:25;;;;;;;8.05;5.75;;;;;;;18.38;100.00;98388.91;1220765;75;3047327;-73
2023/09/30 09:33:03;;;;;;;8.15;5.90;;;;;;;18.31;100.00;98399.25;1224985;75;2916730;-73
2023/09/30 09:35:39;;;;;;;7.60;6.20;;;;;;;18.17;100.00;98394.00;1225177;75;2925325;-75
2023/09/30 09:38:12;;;;;;;8.30;5.70;;;;;;;18.11;100.00;98391.25;1221281;75;2922923;-73
2023/09/30 09:40:45;;;;;;;6.60;4.95;;;;;;;18.27;100.00;98384.88;1224383;75;2962839;-77
2023/09/30 09:43:18;;;;;;;8.60;6.25;;;;;;;18.17;100.00;98377.38;1225128;75;2919829;-74
2023/09/30 09:45:51;;;;;;;8.35;5.90;;;;;;;18.39;100.00;98376.53;1224450;75;2921700;-77
2023/09/30 09:48:23;;;;;;;8.70;6.25;;;;;;;18.66;100.00;98383.19;1224115;75;2922761;-77
2023/09/30 09:50:59;;;;;;;7.15;5.65;;;;;;;18.65;100.00;98381.69;1224420;75;2924885;-74
2023/09/30 09:53:37;;;;;;;8.60;5.90;;;;;;;18.74;100.00;98384.16;1224829;75;2922968;-76
2023/09/30 09:56:12;;;;;;;6.60;4.80;;;;;;;19.00;100.00;98377.44;1225285;75;2924044;-75
2023/09/30 09:58:45;;;;;;;8.35;5.80;;;;;;;19.29;100.00;98384.28;1224412;75;2922979;-76
2023/09/30 10:01:18;;;;;;;6.80;5.20;;;;;;;19.65;100.00;98373.09;1224096;75;2924315;-76
2023/09/30 10:03:50;;;;;;;7.20;5.50;;;;;;;19.77;95.81;98374.50;1223576;75;2946650;-77
2023/09/30 10:06:27;;;;;;;8.95;7.50;;;;;;;20.28;92.23;98371.16;1221129;75;3038258;-72
2023/09/30 10:09:01;;;;;;;9.30;6.20;;;;;;;20.21;90.64;98369.72;1224435;75;2928011;-70
2023/09/30 10:11:33;;;;;;;8.85;5.35;;;;;;;20.40;89.42;98370.47;1207607;75;4018076;-74
2023/09/30 10:14:12;;;;;;;6.85;4.60;;;;;;;20.76;86.05;98373.03;1223561;75;2919676;-76
2023/09/30 10:16:55;;;;;;;7.55;4.80;;;;;;;20.69;86.37;98367.34;1224226;75;2935862;-74
2023/09/30 10:19:30;;;;;;;7.50;5.20;;;;;;;20.97;85.29;98364.91;1225304;75;2923332;-75
2023/09/30 10:22:27;;;;;;;7.35;5.15;;;;;;;21.73;79.82;98361.84;1224922;75;2919029;-72
2023/09/30 10:25:01;;;;;;;7.75;5.85;;;;;;;21.76;79.66;98363.53;1223410;75;2931366;-73
2023/09/30 10:27:39;;;;;;;7.40;5.60;;;;;;;21.67;78.09;98363.97;1220254;75;3031930;-75
2023/09/30 10:30:16;;;;;;;7.50;4.65;;;;;;;22.11;76.88;98367.94;1223928;75;2903182;-77
2023/09/30 10:33:14;;;;;;;9.60;5.85;;;;;;;22.09;75.09;98367.72;1224892;75;2917990;-73
2023/09/30 10:35:51;;;;;;;6.40;4.80;;;;;;;23.65;70.70;98360.38;1221696;75;2948414;-76
2023/09/30 10:38:49;;;;;;;6.65;4.90;;;;;;;23.55;70.20;98360.88;1224472;75;2919481;-75
2023/09/30 10:41:54;;;;;;;9.35;5.50;;;;;;;24.69;65.15;98356.41;1224484;75;2928352;-74
2023/09/30 10:44:39;;;;;;;8.45;5.30;;;;;;;24.97;62.15;98349.94;1224605;75;2923122;-76
2023/09/30 10:47:41;;;;;;;9.15;5.35;;;;;;;25.39;60.52;98352.38;1224819;75;2914337;-75
2023/09/30 10:50:56;;;;;;;7.35;4.95;;;;;;;26.55;59.66;98344.41;1223627;75;2927780;-74
2023/09/30 10:53:30;;;;;;;7.45;5.35;;;;;;;26.58;56.69;98342.53;1222285;75;3002568;-76
2023/09/30 10:56:05;;;;;;;8.45;5.55;;;;;;;26.23;56.70;98345.84;1224187;75;2934556;-76
2023/09/30 10:58:45;;;;;;;10.45;6.75;;;;;;;27.10;55.95;98337.88;1224574;75;2917721;-75
2023/09/30 11:01:20;;;;;;;10.05;6.55;;;;;;;27.44;53.56;98325.22;1222849;75;2945893;-76
2023/09/30 11:04:03;;;;;;;12.80;8.95;;;;;;;27.71;52.28;98327.41;1224615;75;2918646;-77
2023/09/30 11:06:36;;;;;;;12.00;6.90;;;;;;;27.45;51.87;98332.38;1223010;75;2939758;-75
2023/09/30 11:09:13;;;;;;;9.20;6.45;;;;;;;28.75;52.02;98332.94;1224952;75;2927539;-76
2023/09/30 11:11:52;;;;;;;9.55;6.60;;;;;;;29.53;49.24;98328.28;1223438;75;2921102;-74
2023/09/30 11:14:27;;;;;;;10.60;7.05;;;;;;;29.44;48.37;98320.56;1223751;75;2930162;-75
2023/09/30 11:17:03;;;;;;;11.50;6.25;;;;;;;28.42;49.86;98327.53;1224194;75;2924753;-75
2023/09/30 11:19:40;;;;;;;8.90;5.75;;;;;;;28.57;49.40;98325.84;1223965;75;2914236;-76
2023/09/30 11:22:12;;;;;;;10.15;5.45;;;;;;;28.92;49.94;98322.91;1224611;75;2917552;-74
2023/09/30 11:24:46;;;;;;;9.40;5.85;;;;;;;27.75;51.02;98319.31;1224571;75;2927660;-77
2023/09/30 11:27:27;;;;;;;8.65;5.55;;;;;;;26.53;54.70;98321.75;1225340;75;2919147;-77
2023/09/30 11:30:00;;;;;;;9.60;5.60;;;;;;;27.65;53.13;98313.59;1224843;75;2936365;-76
2023/09/30 11:32:34;;;;;;;8.45;5.25;;;;;;;28.18;51.70;98306.63;1223941;75;2915429;-74
2023/09/30 11:35:11;;;;;;;10.45;5.60;;;;;;;28.15;50.88;98301.44;1222918;75;2945521;-76
2023/09/30 11:37:46;;;;;;;9.30;5.60;;;;;;;28.51;50.31;98303.59;1225128;75;2916298;-75
2023/09/30 11:40:20;;;;;;;8.20;5.05;;;;;;;28.96;49.94;98301.44;1224387;75;2924449;-75
2023/09/30 11:43:14;;;;;;;9.60;5.50;;;;;;;27.54;51.57;98291.56;1224015;75;2924360;-75